createdAt,value
2022-07-30T00:00:25.632Z,22.70
2022-07-30T00:01:25.495Z,22.72
2022-07-30T00:02:25.454Z,22.72
2022-07-30T00:03:25.445Z,22.72
2022-07-30T00:04:25.430Z,22.72
2022-07-30T00:05:25.405Z,22.72
2022-07-30T00:06:25.390Z,22.70
2022-07-30T00:07:25.376Z,22.73
2022-07-30T00:08:25.367Z,22.72
2022-07-30T00:09:25.384Z,22.72
2022-07-30T00:10:25.345Z,22.72
2022-07-30T00:11:27.888Z,22.70
2022-07-30T00:12:25.327Z,22.70
2022-07-30T00:13:25.312Z,22.73
2022-07-30T00:14:25.304Z,22.70
2022-07-30T00:15:25.306Z,22.72
2022-07-30T00:16:25.343Z,22.70
2022-07-30T00:17:25.269Z,22.72
2022-07-30T00:18:25.259Z,22.70
2022-07-30T00:19:25.246Z,22.72
2022-07-30T00:20:26.768Z,22.72
2022-07-30T00:21:36.162Z,22.70
2022-07-30T00:22:26.215Z,22.72
2022-07-30T00:23:25.203Z,22.72
2022-07-30T00:24:25.194Z,22.72
2022-07-30T00:25:25.180Z,22.72
2022-07-30T00:26:25.198Z,22.72
2022-07-30T00:27:25.159Z,22.72
2022-07-30T00:28:25.148Z,22.70
2022-07-30T00:29:25.137Z,22.72
2022-07-30T00:30:25.190Z,22.70
2022-07-30T00:31:25.116Z,22.70
2022-07-30T00:32:25.122Z,22.72
2022-07-30T00:33:25.096Z,22.70
2022-07-30T00:34:25.085Z,22.72
2022-07-30T00:35:25.076Z,22.69
2022-07-30T00:36:25.065Z,22.72
2022-07-30T00:37:25.067Z,22.70
2022-07-30T00:38:25.042Z,22.72
2022-07-30T00:39:25.028Z,22.72
2022-07-30T00:40:25.020Z,22.70
2022-07-30T00:41:25.008Z,22.72
2022-07-30T00:42:25.013Z,22.72
2022-07-30T00:43:24.986Z,22.70
2022-07-30T00:44:24.976Z,22.70
2022-07-30T00:45:25.108Z,22.70
2022-07-30T00:46:24.955Z,22.70
2022-07-30T00:47:24.959Z,22.70
2022-07-30T00:48:24.934Z,22.70
2022-07-30T00:49:25.020Z,22.70
2022-07-30T00:50:24.912Z,22.69
2022-07-30T00:51:24.898Z,22.70
2022-07-30T00:52:24.904Z,22.70
2022-07-30T00:53:24.877Z,22.69
2022-07-30T00:54:24.865Z,22.70
2022-07-30T00:55:24.855Z,22.72
2022-07-30T00:56:24.846Z,22.69
2022-07-30T00:57:24.860Z,22.69
2022-07-30T00:58:24.824Z,22.70
2022-07-30T00:59:24.812Z,22.72
2022-07-30T01:00:24.802Z,22.70
2022-07-30T01:01:24.855Z,22.69
2022-07-30T01:02:24.824Z,22.70
2022-07-30T01:03:24.784Z,22.72
2022-07-30T01:04:24.757Z,22.70
2022-07-30T01:05:24.744Z,22.69
2022-07-30T01:06:24.735Z,22.70
2022-07-30T01:07:27.377Z,22.70
2022-07-30T01:08:24.746Z,22.70
2022-07-30T01:09:24.704Z,22.70
2022-07-30T01:10:24.694Z,22.70
2022-07-30T01:11:24.681Z,22.70
2022-07-30T01:12:24.671Z,22.70
2022-07-30T01:13:24.659Z,22.70
2022-07-30T01:14:24.665Z,22.70
2022-07-30T01:15:24.636Z,22.69
2022-07-30T01:16:24.750Z,22.70
2022-07-30T01:17:24.615Z,22.68
2022-07-30T01:18:24.607Z,22.70
2022-07-30T01:19:24.612Z,22.70
2022-07-30T01:20:24.598Z,22.70
2022-07-30T01:21:24.572Z,22.70
2022-07-30T01:22:24.563Z,22.70
2022-07-30T01:23:24.550Z,22.69
2022-07-30T01:24:24.538Z,22.70
2022-07-30T01:25:24.544Z,22.70
2022-07-30T01:26:24.519Z,22.69
2022-07-30T01:27:24.506Z,22.69
2022-07-30T01:28:24.500Z,22.70
2022-07-30T01:29:24.484Z,22.70
2022-07-30T01:30:24.493Z,22.69
2022-07-30T01:31:24.539Z,22.69
2022-07-30T01:32:24.454Z,22.69
2022-07-30T01:33:24.440Z,22.70
2022-07-30T01:34:24.431Z,22.70
2022-07-30T01:35:24.434Z,22.70
2022-07-30T01:36:24.408Z,22.70
2022-07-30T01:37:24.396Z,22.70
2022-07-30T01:38:24.389Z,22.70
2022-07-30T01:39:24.375Z,22.69
2022-07-30T01:40:24.385Z,22.69
2022-07-30T01:41:24.369Z,22.69
2022-07-30T01:42:24.343Z,22.70
2022-07-30T01:43:24.332Z,22.69
2022-07-30T01:44:24.322Z,22.70
2022-07-30T01:45:24.332Z,22.69
2022-07-30T01:46:24.367Z,22.70
2022-07-30T01:47:24.302Z,22.70
2022-07-30T01:48:24.279Z,22.69
2022-07-30T01:49:24.325Z,22.69
2022-07-30T01:50:24.256Z,22.69
2022-07-30T01:51:24.244Z,22.70
2022-07-30T01:52:24.252Z,22.70
2022-07-30T01:53:24.223Z,22.69
2022-07-30T01:54:24.212Z,22.69
2022-07-30T01:55:24.201Z,22.70
2022-07-30T01:56:24.756Z,22.68
2022-07-30T01:57:24.202Z,22.68
2022-07-30T01:58:24.171Z,22.69
2022-07-30T01:59:24.159Z,22.68
2022-07-30T02:00:24.149Z,22.69
2022-07-30T02:01:24.207Z,22.68
2022-07-30T02:02:24.141Z,22.70
2022-07-30T02:03:24.178Z,22.69
2022-07-30T02:04:24.103Z,22.69
2022-07-30T02:05:24.095Z,22.69
2022-07-30T02:06:24.082Z,22.69
2022-07-30T02:07:24.073Z,22.69
2022-07-30T02:08:24.079Z,22.69
2022-07-30T02:09:24.054Z,22.69
2022-07-30T02:10:24.040Z,22.69
2022-07-30T02:11:24.030Z,22.69
2022-07-30T02:12:24.016Z,22.69
2022-07-30T02:13:24.025Z,22.68
2022-07-30T02:14:23.994Z,22.70
2022-07-30T02:15:23.984Z,22.69
2022-07-30T02:16:24.027Z,22.70
2022-07-30T02:17:26.558Z,22.68
2022-07-30T02:18:24.969Z,22.69
2022-07-30T02:19:23.956Z,22.69
2022-07-30T02:20:25.052Z,22.70
2022-07-30T02:21:23.919Z,22.69
2022-07-30T02:22:24.907Z,22.69
2022-07-30T02:23:23.897Z,22.69
2022-07-30T02:24:23.904Z,22.69
2022-07-30T02:25:23.890Z,22.69
2022-07-30T02:26:23.868Z,22.69
2022-07-30T02:27:23.853Z,22.69
2022-07-30T02:28:23.846Z,22.69
2022-07-30T02:29:23.834Z,22.69
2022-07-30T02:30:23.837Z,22.69
2022-07-30T02:31:23.904Z,22.69
2022-07-30T02:32:23.803Z,22.69
2022-07-30T02:33:23.788Z,22.68
2022-07-30T02:34:23.779Z,22.69
2022-07-30T02:35:23.782Z,22.69
2022-07-30T02:36:23.756Z,22.69
2022-07-30T02:37:43.291Z,22.69
2022-07-30T02:38:24.733Z,22.69
2022-07-30T02:39:23.722Z,22.68
2022-07-30T02:40:23.730Z,22.69
2022-07-30T02:41:23.702Z,22.69
2022-07-30T02:42:23.694Z,22.69
2022-07-30T02:43:23.682Z,22.69
2022-07-30T02:44:23.671Z,22.69
2022-07-30T02:45:23.673Z,22.69
2022-07-30T02:46:23.718Z,22.69
2022-07-30T02:47:23.635Z,22.68
2022-07-30T02:48:34.416Z,22.68
2022-07-30T02:49:24.613Z,22.68
2022-07-30T02:50:23.618Z,22.68
2022-07-30T02:51:23.591Z,22.69
2022-07-30T02:52:23.584Z,22.68
2022-07-30T02:53:23.570Z,22.69
2022-07-30T02:54:23.563Z,22.69
2022-07-30T02:55:23.565Z,22.68
2022-07-30T02:56:23.539Z,22.69
2022-07-30T02:57:23.530Z,22.69
2022-07-30T02:58:23.518Z,22.69
2022-07-30T02:59:23.504Z,22.68
2022-07-30T03:00:23.567Z,22.69
2022-07-30T03:01:23.499Z,22.68
2022-07-30T03:02:29.061Z,22.68
2022-07-30T03:03:24.461Z,22.69
2022-07-30T03:04:23.454Z,22.68
2022-07-30T03:05:23.439Z,22.68
2022-07-30T03:06:23.487Z,22.68
2022-07-30T03:07:23.418Z,22.68
2022-07-30T03:08:23.408Z,22.69
2022-07-30T03:09:23.397Z,22.69
2022-07-30T03:10:23.387Z,22.69
2022-07-30T03:11:23.402Z,22.68
2022-07-30T03:12:23.368Z,22.66
2022-07-30T03:13:23.356Z,22.69
2022-07-30T03:14:23.345Z,22.68
2022-07-30T03:15:23.331Z,22.68
2022-07-30T03:16:23.468Z,22.68
2022-07-30T03:17:23.325Z,22.68
2022-07-30T03:18:23.301Z,22.68
2022-07-30T03:19:23.288Z,22.68
2022-07-30T03:20:23.278Z,22.68
2022-07-30T03:21:23.266Z,22.68
2022-07-30T03:22:23.283Z,22.68
2022-07-30T03:23:23.247Z,22.66
2022-07-30T03:24:23.238Z,22.68
2022-07-30T03:25:23.222Z,22.68
2022-07-30T03:26:23.212Z,22.68
2022-07-30T03:27:23.217Z,22.66
2022-07-30T03:28:23.191Z,22.68
2022-07-30T03:29:23.180Z,22.66
2022-07-30T03:30:23.171Z,22.69
2022-07-30T03:31:23.212Z,22.68
2022-07-30T03:32:25.977Z,22.68
2022-07-30T03:33:23.138Z,22.68
2022-07-30T03:34:23.127Z,22.68
2022-07-30T03:35:23.115Z,22.68
2022-07-30T03:36:23.102Z,22.68
2022-07-30T03:37:23.109Z,22.69
2022-07-30T03:38:23.086Z,22.66
2022-07-30T03:39:23.070Z,22.68
2022-07-30T03:40:23.059Z,22.68
2022-07-30T03:41:23.050Z,22.66
2022-07-30T03:42:23.036Z,22.66
2022-07-30T03:43:33.351Z,22.68
2022-07-30T03:44:24.019Z,22.68
2022-07-30T03:45:23.005Z,22.68
2022-07-30T03:46:23.099Z,22.68
2022-07-30T03:47:22.985Z,22.68
2022-07-30T03:48:22.988Z,22.66
2022-07-30T03:49:23.088Z,22.66
2022-07-30T03:50:22.950Z,22.66
2022-07-30T03:51:22.941Z,22.66
2022-07-30T03:52:22.928Z,22.68
2022-07-30T03:53:22.940Z,22.68
2022-07-30T03:54:22.907Z,22.68
2022-07-30T03:55:22.900Z,22.68
2022-07-30T03:56:22.885Z,22.68
2022-07-30T03:57:22.875Z,22.66
2022-07-30T03:58:22.892Z,22.68
2022-07-30T03:59:22.855Z,22.68
2022-07-30T04:00:22.841Z,22.68
2022-07-30T04:01:22.875Z,22.68
2022-07-30T04:02:22.819Z,22.66
2022-07-30T04:03:22.895Z,22.69
2022-07-30T04:04:22.814Z,22.66
2022-07-30T04:05:22.792Z,22.65
2022-07-30T04:06:22.776Z,22.68
2022-07-30T04:07:22.769Z,22.66
2022-07-30T04:08:22.754Z,22.66
2022-07-30T04:09:22.764Z,22.66
2022-07-30T04:10:22.732Z,22.68
2022-07-30T04:11:40.771Z,22.68
2022-07-30T04:12:23.709Z,22.66
2022-07-30T04:13:22.703Z,22.66
2022-07-30T04:14:22.705Z,22.68
2022-07-30T04:16:38.078Z,22.66
2022-07-30T04:16:39.549Z,22.66
2022-07-30T04:17:23.709Z,22.66
2022-07-30T04:18:22.644Z,22.66
2022-07-30T04:19:22.654Z,22.65
2022-07-30T04:20:22.623Z,22.66
2022-07-30T04:21:22.622Z,22.65
2022-07-30T04:22:22.603Z,22.66
2022-07-30T04:23:22.594Z,22.65
2022-07-30T04:24:22.599Z,22.66
2022-07-30T04:25:24.498Z,22.66
2022-07-30T04:26:22.562Z,22.68
2022-07-30T04:27:22.549Z,22.65
2022-07-30T04:28:22.536Z,22.65
2022-07-30T04:29:24.713Z,22.66
2022-07-30T04:30:22.531Z,22.68
2022-07-30T04:31:22.599Z,22.65
2022-07-30T04:32:22.492Z,22.66
2022-07-30T04:33:22.485Z,22.66
2022-07-30T04:34:22.471Z,22.65
2022-07-30T04:35:47.964Z,22.66
2022-07-30T04:36:23.467Z,22.66
2022-07-30T04:37:22.440Z,22.66
2022-07-30T04:38:22.430Z,22.66
2022-07-30T04:39:22.421Z,22.66
2022-07-30T04:40:22.407Z,22.65
2022-07-30T04:41:22.424Z,22.66
2022-07-30T04:42:22.383Z,22.68
2022-07-30T04:43:22.376Z,22.66
2022-07-30T04:44:22.362Z,22.66
2022-07-30T04:45:22.353Z,22.63
2022-07-30T04:46:24.460Z,22.66
2022-07-30T04:47:22.345Z,22.65
2022-07-30T04:48:22.318Z,22.65
2022-07-30T04:49:22.459Z,22.65
2022-07-30T04:50:22.297Z,22.65
2022-07-30T04:51:22.288Z,22.66
2022-07-30T04:52:22.293Z,22.66
2022-07-30T04:53:22.284Z,22.65
2022-07-30T04:54:22.254Z,22.65
2022-07-30T04:55:22.246Z,22.66
2022-07-30T04:56:22.230Z,22.66
2022-07-30T04:57:22.225Z,22.65
2022-07-30T04:58:22.227Z,22.65
2022-07-30T04:59:22.201Z,22.66
2022-07-30T05:00:22.187Z,22.66
2022-07-30T05:01:22.240Z,22.66
2022-07-30T05:02:22.167Z,22.66
2022-07-30T05:03:22.175Z,22.65
2022-07-30T05:04:22.145Z,22.66
2022-07-30T05:05:22.212Z,22.66
2022-07-30T05:06:22.122Z,22.65
2022-07-30T05:07:22.392Z,22.66
2022-07-30T05:08:22.118Z,22.66
2022-07-30T05:09:22.093Z,22.65
2022-07-30T05:10:22.083Z,22.66
2022-07-30T05:11:22.071Z,22.66
2022-07-30T05:12:22.056Z,22.66
2022-07-30T05:13:22.286Z,22.65
2022-07-30T05:14:22.034Z,22.66
2022-07-30T05:15:22.028Z,22.66
2022-07-30T05:16:23.075Z,22.66
2022-07-30T05:17:22.005Z,22.66
2022-07-30T05:18:22.010Z,22.65
2022-07-30T05:19:21.999Z,22.66
2022-07-30T05:20:21.970Z,22.66
2022-07-30T05:21:21.961Z,22.66
2022-07-30T05:22:21.949Z,22.66
2022-07-30T05:23:21.940Z,22.66
2022-07-30T05:24:21.955Z,22.65
2022-07-30T05:25:21.916Z,22.66
2022-07-30T05:26:21.907Z,22.66
2022-07-30T05:27:22.893Z,22.66
2022-07-30T05:28:21.883Z,22.66
2022-07-30T05:29:21.874Z,22.66
2022-07-30T05:30:27.419Z,22.69
2022-07-30T05:31:22.975Z,22.66
2022-07-30T05:32:21.840Z,22.66
2022-07-30T05:33:21.828Z,22.66
2022-07-30T05:34:22.817Z,22.66
2022-07-30T05:35:21.807Z,22.68
2022-07-30T05:36:21.810Z,22.68
2022-07-30T05:37:21.787Z,22.65
2022-07-30T05:38:21.776Z,22.68
2022-07-30T05:39:21.764Z,22.68
2022-07-30T05:40:21.752Z,22.68
2022-07-30T05:41:32.117Z,22.68
2022-07-30T05:42:22.728Z,22.68
2022-07-30T05:43:21.725Z,22.68
2022-07-30T05:44:24.045Z,22.66
2022-07-30T05:45:21.698Z,22.68
2022-07-30T05:46:21.762Z,22.68
2022-07-30T05:47:22.720Z,22.68
2022-07-30T05:48:21.665Z,22.68
2022-07-30T05:49:21.732Z,22.68
2022-07-30T05:50:21.644Z,22.69
2022-07-30T05:51:21.652Z,22.69
2022-07-30T05:52:21.624Z,22.68
2022-07-30T05:53:21.612Z,22.68
2022-07-30T05:54:21.604Z,22.68
2022-07-30T05:55:21.589Z,22.68
2022-07-30T05:56:21.596Z,22.68
2022-07-30T05:57:21.585Z,22.69
2022-07-30T05:58:21.562Z,22.69
2022-07-30T05:59:21.546Z,22.68
2022-07-30T06:00:21.536Z,22.68
2022-07-30T06:01:21.559Z,22.68
2022-07-30T06:02:24.506Z,22.68
2022-07-30T06:03:21.505Z,22.69
2022-07-30T06:04:21.607Z,22.68
2022-07-30T06:05:21.480Z,22.68
2022-07-30T06:06:23.230Z,22.69
2022-07-30T06:07:21.476Z,22.69
2022-07-30T06:08:21.447Z,22.69
2022-07-30T06:09:22.522Z,22.69
2022-07-30T06:10:22.424Z,22.68
2022-07-30T06:11:21.414Z,22.69
2022-07-30T06:12:21.458Z,22.69
2022-07-30T06:13:21.397Z,22.69
2022-07-30T06:14:21.382Z,22.69
2022-07-30T06:15:25.917Z,22.69
2022-07-30T06:16:21.411Z,22.69
2022-07-30T06:17:21.365Z,22.68
2022-07-30T06:18:23.198Z,22.69
2022-07-30T06:19:21.328Z,22.69
2022-07-30T06:20:21.316Z,22.69
2022-07-30T06:21:21.310Z,22.69
2022-07-30T06:22:25.819Z,22.69
2022-07-30T06:23:21.290Z,22.69
2022-07-30T06:24:21.273Z,22.69
2022-07-30T06:25:21.266Z,22.69
2022-07-30T06:26:21.250Z,22.70
2022-07-30T06:27:21.258Z,22.69
2022-07-30T06:28:37.004Z,22.70
2022-07-30T06:29:22.218Z,22.70
2022-07-30T06:30:21.208Z,22.70
2022-07-30T06:31:22.362Z,22.70
2022-07-30T06:32:21.188Z,22.70
2022-07-30T06:33:21.198Z,22.70
2022-07-30T06:34:21.164Z,22.70
2022-07-30T06:35:21.153Z,22.69
2022-07-30T06:36:21.148Z,22.69
2022-07-30T06:37:21.132Z,22.70
2022-07-30T06:38:22.140Z,22.70
2022-07-30T06:39:56.140Z,22.70
2022-07-30T06:40:22.104Z,22.70
2022-07-30T06:41:21.088Z,22.72
2022-07-30T06:42:21.079Z,22.69
2022-07-30T06:43:21.088Z,22.70
2022-07-30T06:44:21.057Z,22.70
2022-07-30T06:45:21.045Z,22.72
2022-07-30T06:46:21.090Z,22.72
2022-07-30T06:47:21.025Z,22.70
2022-07-30T06:48:21.032Z,22.70
2022-07-30T06:49:21.026Z,22.72
2022-07-30T06:50:20.991Z,22.72
2022-07-30T06:51:20.980Z,22.70
2022-07-30T06:52:20.972Z,22.72
2022-07-30T06:53:20.983Z,22.70
2022-07-30T06:54:20.949Z,22.72
2022-07-30T06:55:20.938Z,22.72
2022-07-30T06:56:20.926Z,22.72
2022-07-30T06:57:20.917Z,22.72
2022-07-30T06:58:25.430Z,22.72
2022-07-30T06:59:20.915Z,22.70
2022-07-30T07:00:20.886Z,22.70
2022-07-30T07:01:20.899Z,22.72
2022-07-30T07:02:20.859Z,22.72
2022-07-30T07:03:20.848Z,22.70
2022-07-30T07:04:20.941Z,22.72
2022-07-30T07:05:20.826Z,22.72
2022-07-30T07:06:20.816Z,22.72
2022-07-30T07:07:40.402Z,22.72
2022-07-30T07:08:21.794Z,22.72
2022-07-30T07:09:20.802Z,22.72
2022-07-30T07:10:20.773Z,22.72
2022-07-30T07:11:20.761Z,22.72
2022-07-30T07:12:20.754Z,22.72
2022-07-30T07:13:20.739Z,22.73
2022-07-30T07:14:20.751Z,22.72
2022-07-30T07:15:21.858Z,22.72
2022-07-30T07:16:21.922Z,22.73
2022-07-30T07:17:20.747Z,22.72
2022-07-30T07:18:20.686Z,22.72
2022-07-30T07:20:01.684Z,22.73
2022-07-30T07:20:21.664Z,22.73
2022-07-30T07:21:20.652Z,22.73
2022-07-30T07:22:20.642Z,22.73
2022-07-30T07:23:20.680Z,22.72
2022-07-30T07:24:20.619Z,22.73
2022-07-30T07:25:20.625Z,22.75
2022-07-30T07:26:20.602Z,22.73
2022-07-30T07:27:20.593Z,22.75
2022-07-30T07:28:20.576Z,22.73
2022-07-30T07:29:20.565Z,22.73
2022-07-30T07:30:20.582Z,22.73
2022-07-30T07:32:06.805Z,22.73
2022-07-30T07:32:21.532Z,22.75
2022-07-30T07:33:20.528Z,22.73
2022-07-30T07:34:20.512Z,22.73
2022-07-30T07:35:20.517Z,22.75
2022-07-30T07:36:20.492Z,22.75
2022-07-30T07:37:20.478Z,22.73
2022-07-30T07:38:20.469Z,22.73
2022-07-30T07:39:20.456Z,22.73
2022-07-30T07:40:20.467Z,22.75
2022-07-30T07:41:20.434Z,22.75
2022-07-30T07:42:20.426Z,22.73
2022-07-30T07:43:20.413Z,22.73
2022-07-30T07:44:20.404Z,22.73
2022-07-30T07:45:20.424Z,22.73
2022-07-30T07:46:33.562Z,22.75
2022-07-30T07:47:21.368Z,22.73
2022-07-30T07:48:20.358Z,22.73
2022-07-30T07:49:20.422Z,22.75
2022-07-30T07:50:20.359Z,22.75
2022-07-30T07:51:47.685Z,22.76
2022-07-30T07:52:21.315Z,22.75
2022-07-30T07:53:20.306Z,22.73
2022-07-30T07:54:22.591Z,22.75
2022-07-30T07:55:20.310Z,22.75
2022-07-30T07:56:20.272Z,22.75
2022-07-30T07:57:20.334Z,22.75
2022-07-30T07:58:25.503Z,22.75
2022-07-30T07:59:21.237Z,22.75
2022-07-30T08:00:20.238Z,22.73
2022-07-30T08:01:20.302Z,22.75
2022-07-30T08:02:20.265Z,22.76
2022-07-30T08:03:20.195Z,22.75
2022-07-30T08:04:20.187Z,22.75
2022-07-30T08:05:20.185Z,22.75
2022-07-30T08:06:20.183Z,22.78
2022-07-30T08:07:20.151Z,22.73
2022-07-30T08:08:20.142Z,22.76
2022-07-30T08:09:20.131Z,22.76
2022-07-30T08:10:20.123Z,22.76
2022-07-30T08:11:20.124Z,22.76
2022-07-30T08:12:20.115Z,22.75
2022-07-30T08:13:52.531Z,22.76
2022-07-30T08:14:21.077Z,22.76
2022-07-30T08:15:22.007Z,22.76
2022-07-30T08:16:20.135Z,22.76
2022-07-30T08:17:20.149Z,22.78
2022-07-30T08:18:20.033Z,22.78
2022-07-30T08:19:20.023Z,22.76
2022-07-30T08:20:20.014Z,22.78
2022-07-30T08:21:19.999Z,22.78
2022-07-30T08:22:20.008Z,22.76
2022-07-30T08:23:19.982Z,22.78
2022-07-30T08:24:19.971Z,22.80
2022-07-30T08:25:21.728Z,22.76
2022-07-30T08:26:19.947Z,22.78
2022-07-30T08:27:19.960Z,22.78
2022-07-30T08:28:35.293Z,22.76
2022-07-30T08:29:20.911Z,22.76
2022-07-30T08:30:19.907Z,22.76
2022-07-30T08:31:19.893Z,22.78
2022-07-30T08:32:19.881Z,22.78
2022-07-30T08:33:19.884Z,22.78
2022-07-30T08:34:19.858Z,22.78
2022-07-30T08:35:20.845Z,22.76
2022-07-30T08:36:24.135Z,22.76
2022-07-30T08:37:20.823Z,22.76
2022-07-30T08:38:19.832Z,22.78
2022-07-30T08:39:19.803Z,22.78
2022-07-30T08:40:19.793Z,22.78
2022-07-30T08:41:19.781Z,22.78
2022-07-30T08:42:19.773Z,22.78
2022-07-30T08:43:19.776Z,22.78
2022-07-30T08:44:19.748Z,22.78
2022-07-30T08:45:19.737Z,22.80
2022-07-30T08:46:20.725Z,22.78
2022-07-30T08:47:19.716Z,22.76
2022-07-30T08:48:19.724Z,22.80
2022-07-30T08:49:19.696Z,22.78
2022-07-30T08:50:19.766Z,22.78
2022-07-30T08:51:19.672Z,22.80
2022-07-30T08:52:19.663Z,22.78
2022-07-30T08:53:19.666Z,22.78
2022-07-30T08:54:19.665Z,22.80
2022-07-30T08:55:19.628Z,22.80
2022-07-30T08:56:19.618Z,22.80
2022-07-30T08:57:19.606Z,22.78
2022-07-30T08:58:19.595Z,22.78
2022-07-30T08:59:19.602Z,22.78
2022-07-30T09:00:19.630Z,22.80
2022-07-30T09:01:19.564Z,22.78
2022-07-30T09:02:27.441Z,22.78
2022-07-30T09:03:20.539Z,22.78
2022-07-30T09:04:19.550Z,22.81
2022-07-30T09:05:19.519Z,22.80
2022-07-30T09:06:19.512Z,22.80
2022-07-30T09:07:19.497Z,22.80
2022-07-30T09:08:19.900Z,22.78
2022-07-30T09:09:19.494Z,22.80
2022-07-30T09:10:19.467Z,22.80
2022-07-30T09:11:19.458Z,22.78
2022-07-30T09:12:19.444Z,22.80
2022-07-30T09:13:19.432Z,22.80
2022-07-30T09:14:19.439Z,22.80
2022-07-30T09:15:19.410Z,22.78
2022-07-30T09:16:19.403Z,22.80
2022-07-30T09:17:19.388Z,22.78
2022-07-30T09:18:19.378Z,22.80
2022-07-30T09:19:19.385Z,22.80
2022-07-30T09:20:19.363Z,22.80
2022-07-30T09:21:19.344Z,22.80
2022-07-30T09:22:19.338Z,22.81
2022-07-30T09:23:19.322Z,22.80
2022-07-30T09:24:19.332Z,22.80
2022-07-30T09:25:19.301Z,22.80
2022-07-30T09:26:19.292Z,22.80
2022-07-30T09:27:19.279Z,22.80
2022-07-30T09:28:19.272Z,22.80
2022-07-30T09:29:19.275Z,22.80
2022-07-30T09:30:19.267Z,22.80
2022-07-30T09:31:19.313Z,22.80
2022-07-30T09:32:19.229Z,22.80
2022-07-30T09:33:19.213Z,22.80
2022-07-30T09:34:19.210Z,22.80
2022-07-30T09:35:19.215Z,22.78
2022-07-30T09:36:19.181Z,22.80
2022-07-30T09:37:19.170Z,22.80
2022-07-30T09:38:19.159Z,22.80
2022-07-30T09:39:19.150Z,22.81
2022-07-30T09:40:19.153Z,22.80
2022-07-30T09:41:37.645Z,22.81
2022-07-30T09:42:20.115Z,22.80
2022-07-30T09:43:19.107Z,22.81
2022-07-30T09:44:19.097Z,22.80
2022-07-30T09:45:19.110Z,22.81
2022-07-30T09:46:19.075Z,22.80
2022-07-30T09:47:19.066Z,22.81
2022-07-30T09:48:19.051Z,22.81
2022-07-30T09:49:19.455Z,22.81
2022-07-30T09:50:29.903Z,22.80
2022-07-30T09:51:24.019Z,22.81
2022-07-30T09:52:20.006Z,22.83
2022-07-30T09:53:19.999Z,22.80
2022-07-30T09:54:18.984Z,22.80
2022-07-30T09:55:18.976Z,22.81
2022-07-30T09:56:18.978Z,22.81
2022-07-30T09:57:26.159Z,22.81
2022-07-30T09:58:26.501Z,22.81
2022-07-30T09:59:19.930Z,22.80
2022-07-30T10:00:18.919Z,22.80
2022-07-30T10:01:18.926Z,22.80
2022-07-30T10:02:18.914Z,22.81
2022-07-30T10:03:21.655Z,22.81
2022-07-30T10:04:19.874Z,22.81
2022-07-30T10:05:19.118Z,22.80
2022-07-30T10:06:18.856Z,22.81
2022-07-30T10:07:25.574Z,22.80
2022-07-30T10:08:19.847Z,22.80
2022-07-30T10:09:18.821Z,22.81
2022-07-30T10:10:18.810Z,22.81
2022-07-30T10:11:23.450Z,22.81
2022-07-30T10:12:18.788Z,22.81
2022-07-30T10:13:20.816Z,22.81
2022-07-30T10:14:18.782Z,22.83
2022-07-30T10:15:19.757Z,22.81
2022-07-30T10:16:18.746Z,22.83
2022-07-30T10:17:18.737Z,22.81
2022-07-30T10:18:18.735Z,22.83
2022-07-30T10:19:23.301Z,22.83
2022-07-30T10:20:18.714Z,22.81
2022-07-30T10:21:18.692Z,22.81
2022-07-30T10:22:18.724Z,22.83
2022-07-30T10:23:22.658Z,22.81
2022-07-30T10:24:19.677Z,22.83
2022-07-30T10:25:20.828Z,22.81
2022-07-30T10:26:18.636Z,22.83
2022-07-30T10:27:18.785Z,22.83
2022-07-30T10:28:18.616Z,22.81
2022-07-30T10:29:18.621Z,22.80
2022-07-30T10:30:18.608Z,22.81
2022-07-30T10:31:48.942Z,22.83
2022-07-30T10:32:19.570Z,22.81
2022-07-30T10:33:34.876Z,22.80
2022-07-30T10:34:19.548Z,22.83
2022-07-30T10:35:31.268Z,22.81
2022-07-30T10:36:19.541Z,22.83
2022-07-30T10:37:18.519Z,22.83
2022-07-30T10:38:18.508Z,22.81
2022-07-30T10:39:18.495Z,22.83
2022-07-30T10:40:18.484Z,22.83
2022-07-30T10:41:22.203Z,22.83
2022-07-30T10:42:19.462Z,22.83
2022-07-30T10:43:18.451Z,22.81
2022-07-30T10:44:19.585Z,22.83
2022-07-30T10:45:18.435Z,22.83
2022-07-30T10:46:19.991Z,22.83
2022-07-30T10:47:18.412Z,22.83
2022-07-30T10:48:18.396Z,22.83
2022-07-30T10:49:19.136Z,22.83
2022-07-30T10:50:19.441Z,22.83
2022-07-30T10:51:25.305Z,22.81
2022-07-30T10:52:19.355Z,22.83
2022-07-30T10:53:18.344Z,22.81
2022-07-30T10:54:18.332Z,22.81
2022-07-30T10:55:18.322Z,22.81
2022-07-30T10:56:18.328Z,22.81
2022-07-30T10:57:22.564Z,22.81
2022-07-30T10:58:23.032Z,22.81
2022-07-30T10:59:18.277Z,22.83
2022-07-30T11:00:18.323Z,22.81
2022-07-30T11:01:18.812Z,22.83
2022-07-30T11:02:18.260Z,22.83
2022-07-30T11:03:18.287Z,22.84
2022-07-30T11:04:20.530Z,22.81
2022-07-30T11:05:18.580Z,22.84
2022-07-30T11:06:24.284Z,22.83
2022-07-30T11:07:19.204Z,22.83
2022-07-30T11:08:18.179Z,22.83
2022-07-30T11:09:18.169Z,22.81
2022-07-30T11:10:18.160Z,22.83
2022-07-30T11:11:20.267Z,22.83
2022-07-30T11:12:18.400Z,22.84
2022-07-30T11:13:18.126Z,22.83
2022-07-30T11:14:20.338Z,22.83
2022-07-30T11:15:18.414Z,22.84
2022-07-30T11:16:18.092Z,22.84
2022-07-30T11:17:18.097Z,22.84
2022-07-30T11:18:18.070Z,22.84
2022-07-30T11:19:54.905Z,22.81
2022-07-30T11:20:19.048Z,22.83
2022-07-30T11:21:18.039Z,22.83
2022-07-30T11:22:18.055Z,22.83
2022-07-30T11:23:18.019Z,22.81
2022-07-30T11:24:18.007Z,22.83
2022-07-30T11:25:17.994Z,22.84
2022-07-30T11:26:17.985Z,22.83
2022-07-30T11:27:17.972Z,22.84
2022-07-30T11:28:17.977Z,22.83
2022-07-30T11:29:17.950Z,22.83
2022-07-30T11:30:18.940Z,22.83
2022-07-30T11:31:17.928Z,22.84
2022-07-30T11:32:17.918Z,22.83
2022-07-30T11:33:18.764Z,22.83
2022-07-30T11:34:17.898Z,22.81
2022-07-30T11:35:17.885Z,22.83
2022-07-30T11:36:17.876Z,22.83
2022-07-30T11:37:31.752Z,22.84
2022-07-30T11:38:19.349Z,22.83
2022-07-30T11:39:17.857Z,22.83
2022-07-30T11:40:26.078Z,22.84
2022-07-30T11:41:18.818Z,22.84
2022-07-30T11:42:17.810Z,22.83
2022-07-30T11:43:17.799Z,22.83
2022-07-30T11:44:17.809Z,22.81
2022-07-30T11:45:17.778Z,22.83
2022-07-30T11:46:17.766Z,22.83
2022-07-30T11:47:18.752Z,22.84
2022-07-30T11:48:17.744Z,22.83
2022-07-30T11:49:17.964Z,22.84
2022-07-30T11:50:17.721Z,22.84
2022-07-30T11:51:17.710Z,22.84
2022-07-30T11:52:17.699Z,22.84
2022-07-30T11:53:17.689Z,22.83
2022-07-30T11:54:17.696Z,22.83
2022-07-30T11:55:17.683Z,22.83
2022-07-30T11:56:17.657Z,22.83
2022-07-30T11:57:17.645Z,22.81
2022-07-30T11:58:17.640Z,22.83
2022-07-30T11:59:17.625Z,22.83
2022-07-30T12:00:17.634Z,22.81
2022-07-30T12:01:17.602Z,22.84
2022-07-30T12:02:17.593Z,22.84
2022-07-30T12:03:17.583Z,22.83
2022-07-30T12:04:17.575Z,22.84
2022-07-30T12:05:17.574Z,22.83
2022-07-30T12:06:17.549Z,22.83
2022-07-30T12:07:17.536Z,22.84
2022-07-30T12:08:33.427Z,22.83
2022-07-30T12:09:18.513Z,22.83
2022-07-30T12:10:17.520Z,22.84
2022-07-30T12:11:18.494Z,22.83
2022-07-30T12:12:17.485Z,22.84
2022-07-30T12:13:17.471Z,22.83
2022-07-30T12:14:17.463Z,22.84
2022-07-30T12:15:17.468Z,22.84
2022-07-30T12:16:17.867Z,22.81
2022-07-30T12:17:17.428Z,22.83
2022-07-30T12:18:26.200Z,22.83
2022-07-30T12:19:18.405Z,22.84
2022-07-30T12:20:17.412Z,22.84
2022-07-30T12:21:17.401Z,22.83
2022-07-30T12:22:17.374Z,22.84
2022-07-30T12:23:21.934Z,22.84
2022-07-30T12:24:17.352Z,22.84
2022-07-30T12:25:17.341Z,22.84
2022-07-30T12:26:17.348Z,22.83
2022-07-30T12:27:17.319Z,22.83
2022-07-30T12:28:17.312Z,22.83
2022-07-30T12:29:17.299Z,22.83
2022-07-30T12:30:17.289Z,22.84
2022-07-30T12:31:17.292Z,22.83
2022-07-30T12:32:17.267Z,22.83
2022-07-30T12:33:17.254Z,22.83
2022-07-30T12:34:17.246Z,22.84
2022-07-30T12:35:17.232Z,22.83
2022-07-30T12:36:17.240Z,22.83
2022-07-30T12:37:17.210Z,22.81
2022-07-30T12:38:17.206Z,22.81
2022-07-30T12:39:17.189Z,22.84
2022-07-30T12:40:17.181Z,22.83
2022-07-30T12:41:17.184Z,22.84
2022-07-30T12:42:17.172Z,22.83
2022-07-30T12:43:17.145Z,22.83
2022-07-30T12:44:17.137Z,22.83
2022-07-30T12:45:17.124Z,22.84
2022-07-30T12:46:17.117Z,22.83
2022-07-30T12:47:17.119Z,22.84
2022-07-30T12:48:17.101Z,22.84
2022-07-30T12:49:22.017Z,22.81
2022-07-30T12:50:18.069Z,22.84
2022-07-30T12:51:17.057Z,22.83
2022-07-30T12:52:27.890Z,22.83